createdAt,value
2018-12-31T06:00:25.512Z,49.50
2018-12-31T06:00:55.703Z,49.20
2018-12-31T06:01:55.620Z,49.20
2018-12-31T06:02:55.528Z,49.30
2018-12-31T06:03:55.456Z,48.10
2018-12-31T06:04:55.374Z,50.10
2018-12-31T06:05:55.286Z,48.20
2018-12-31T06:06:55.194Z,47.60
2018-12-31T06:07:55.119Z,48.50
2018-12-31T06:08:55.027Z,48.90
2018-12-31T06:09:54.968Z,47.60
2018-12-31T06:10:54.869Z,48.40
2018-12-31T06:11:54.784Z,47.60
2018-12-31T06:12:54.691Z,47.90
2018-12-31T06:13:54.619Z,48.40
2018-12-31T06:14:54.550Z,47.80
2018-12-31T06:15:54.453Z,47.50
2018-12-31T06:16:54.357Z,48.50
2018-12-31T06:17:54.279Z,48.00
2018-12-31T06:18:54.189Z,48.00
2018-12-31T06:19:54.116Z,47.40
2018-12-31T06:20:54.035Z,46.60
2018-12-31T06:21:53.947Z,48.40
2018-12-31T06:22:53.854Z,48.00
2018-12-31T06:23:53.776Z,46.90
2018-12-31T06:24:53.687Z,47.70
2018-12-31T06:25:53.619Z,47.80
2018-12-31T06:26:53.533Z,48.10
2018-12-31T06:27:53.441Z,48.10
2018-12-31T06:28:53.350Z,49.50
2018-12-31T06:29:53.273Z,46.40
2018-12-31T06:30:53.197Z,49.10
2018-12-31T06:31:53.109Z,49.50
2018-12-31T06:32:53.020Z,48.20
2018-12-31T06:33:52.938Z,48.00
2018-12-31T06:34:52.850Z,47.70
2018-12-31T06:35:52.784Z,49.30
2018-12-31T06:36:52.689Z,48.90
2018-12-31T06:37:52.600Z,47.60
2018-12-31T06:38:52.514Z,48.50
2018-12-31T06:39:52.437Z,50.20
2018-12-31T06:40:52.363Z,49.10
2018-12-31T06:41:52.271Z,49.50
2018-12-31T06:42:52.180Z,49.60
2018-12-31T06:43:52.118Z,51.40
2018-12-31T06:44:52.016Z,51.10
2018-12-31T06:45:52.242Z,50.60
2018-12-31T06:46:51.863Z,50.60
2018-12-31T06:47:51.778Z,52.50
2018-12-31T06:48:51.683Z,53.90
2018-12-31T06:49:51.613Z,50.90
2018-12-31T06:50:51.511Z,51.50
2018-12-31T06:51:51.456Z,52.10
2018-12-31T06:52:51.345Z,50.20
2018-12-31T06:53:51.267Z,51.50
2018-12-31T06:54:51.177Z,51.40
2018-12-31T06:55:51.107Z,50.10
2018-12-31T06:56:51.024Z,51.70
2018-12-31T06:57:50.940Z,51.10
2018-12-31T06:58:50.839Z,52.00
2018-12-31T06:59:50.758Z,50.60
2018-12-31T07:00:50.680Z,50.90
2018-12-31T07:01:50.615Z,52.60
2018-12-31T07:02:50.512Z,51.90
2018-12-31T07:03:50.422Z,50.70
2018-12-31T07:04:50.373Z,51.30
2018-12-31T07:05:50.260Z,52.80
2018-12-31T07:06:50.269Z,52.00
2018-12-31T07:07:50.093Z,51.40
2018-12-31T07:08:50.018Z,51.50
2018-12-31T07:09:49.924Z,52.90
2018-12-31T07:10:49.845Z,51.40
2018-12-31T07:11:49.779Z,53.90
2018-12-31T07:12:49.679Z,52.00
2018-12-31T07:13:49.588Z,52.30
2018-12-31T07:14:49.509Z,51.80
2018-12-31T07:15:49.418Z,52.30
2018-12-31T07:16:49.341Z,51.40
2018-12-31T07:17:49.277Z,51.50
2018-12-31T07:18:49.200Z,50.80
2018-12-31T07:19:49.082Z,51.90
2018-12-31T07:20:48.998Z,51.80
2018-12-31T07:21:48.937Z,52.50
2018-12-31T07:22:48.884Z,50.40
2018-12-31T07:23:48.748Z,52.10
2018-12-31T07:24:48.664Z,51.10
2018-12-31T07:25:48.586Z,51.10
2018-12-31T07:26:48.496Z,51.10
2018-12-31T07:27:48.421Z,50.00
2018-12-31T07:28:48.329Z,50.30
2018-12-31T07:29:48.252Z,50.40
2018-12-31T07:30:48.160Z,49.80
2018-12-31T07:31:48.083Z,50.50
2018-12-31T07:32:48.009Z,50.10
2018-12-31T07:33:47.915Z,49.80
2018-12-31T07:34:47.827Z,50.40
2018-12-31T07:35:47.757Z,50.60
2018-12-31T07:36:47.663Z,50.40
2018-12-31T07:37:47.595Z,50.50
2018-12-31T07:38:47.501Z,50.50
2018-12-31T07:39:47.437Z,49.80
2018-12-31T07:40:47.324Z,50.60
2018-12-31T07:41:47.246Z,50.20
2018-12-31T07:42:47.173Z,48.70
2018-12-31T07:43:47.076Z,49.20
2018-12-31T07:44:47.000Z,49.50
2018-12-31T07:45:46.910Z,49.10
2018-12-31T07:46:46.825Z,49.00
2018-12-31T07:47:46.825Z,49.00
2018-12-31T07:48:46.655Z,48.70
2018-12-31T07:49:46.600Z,48.80
2018-12-31T07:50:46.485Z,48.40
2018-12-31T07:51:46.403Z,48.50
2018-12-31T07:52:46.324Z,48.60
2018-12-31T07:53:46.248Z,49.10
2018-12-31T07:54:46.149Z,49.40
2018-12-31T07:55:46.075Z,48.00
2018-12-31T07:56:45.988Z,48.80
2018-12-31T07:57:45.904Z,47.40
2018-12-31T07:58:45.830Z,49.20
2018-12-31T07:59:45.743Z,48.70
2018-12-31T08:00:45.649Z,47.50
2018-12-31T08:01:45.568Z,48.20
2018-12-31T08:02:45.480Z,47.50
2018-12-31T08:03:45.420Z,47.80
2018-12-31T08:04:45.315Z,49.00
2018-12-31T08:05:45.250Z,48.00
2018-12-31T08:06:45.150Z,49.00
2018-12-31T08:07:45.068Z,49.70
2018-12-31T08:08:44.996Z,49.70
2018-12-31T08:09:44.907Z,48.00
2018-12-31T08:10:44.809Z,48.20
2018-12-31T08:11:44.732Z,48.10
2018-12-31T08:12:44.643Z,49.80
2018-12-31T08:13:44.579Z,48.20
2018-12-31T08:14:44.479Z,49.60
2018-12-31T08:15:44.393Z,48.90
2018-12-31T08:16:44.317Z,48.90
2018-12-31T08:17:44.228Z,47.10
2018-12-31T08:18:44.156Z,49.30
2018-12-31T08:19:44.066Z,48.50
2018-12-31T08:20:43.974Z,48.60
2018-12-31T08:21:43.897Z,47.40
2018-12-31T08:22:43.807Z,48.30
2018-12-31T08:23:43.752Z,49.20
2018-12-31T08:24:43.641Z,48.70
2018-12-31T08:25:43.558Z,48.40
2018-12-31T08:26:43.479Z,49.60
2018-12-31T08:27:43.387Z,49.80
2018-12-31T08:28:43.342Z,49.20
2018-12-31T08:29:43.235Z,48.00
2018-12-31T08:30:43.141Z,47.60
2018-12-31T08:31:43.059Z,51.00
2018-12-31T08:32:42.977Z,48.40
2018-12-31T08:33:42.887Z,50.20
2018-12-31T08:34:42.816Z,49.50
2018-12-31T08:35:42.728Z,51.50
2018-12-31T08:36:42.638Z,50.90
2018-12-31T08:37:42.563Z,50.80
2018-12-31T08:38:42.474Z,48.90
2018-12-31T08:39:42.409Z,49.80
2018-12-31T08:40:42.303Z,49.00
2018-12-31T08:41:42.225Z,48.70
2018-12-31T08:42:42.170Z,47.90
2018-12-31T08:43:42.058Z,48.30
2018-12-31T08:44:41.988Z,49.50
2018-12-31T08:45:41.892Z,46.90
2018-12-31T08:46:41.805Z,48.50
2018-12-31T08:47:41.717Z,50.00
2018-12-31T08:48:41.641Z,47.20
2018-12-31T08:49:41.565Z,48.70
2018-12-31T08:50:41.474Z,48.60
2018-12-31T08:51:41.447Z,48.10
2018-12-31T08:52:41.300Z,46.90
2018-12-31T08:53:41.216Z,48.70
2018-12-31T08:54:41.158Z,48.40
2018-12-31T08:55:41.050Z,48.90
2018-12-31T08:56:40.967Z,47.20
2018-12-31T08:57:40.887Z,47.30
2018-12-31T08:58:40.800Z,48.10
2018-12-31T08:59:40.728Z,48.40
2018-12-31T09:00:40.638Z,46.60
2018-12-31T09:01:40.550Z,47.60
2018-12-31T09:02:40.471Z,47.20
2018-12-31T09:03:40.382Z,47.10
2018-12-31T09:04:40.341Z,47.90
2018-12-31T09:05:40.213Z,48.20
2018-12-31T09:06:40.131Z,47.20
2018-12-31T09:07:41.075Z,47.10
2018-12-31T09:08:39.969Z,47.50
2018-12-31T09:09:39.879Z,47.40
2018-12-31T09:10:39.814Z,47.80
2018-12-31T09:11:39.715Z,48.90
2018-12-31T09:12:39.664Z,47.20
2018-12-31T09:13:39.551Z,47.50
2018-12-31T09:14:39.471Z,47.30
2018-12-31T09:15:39.403Z,48.60
2018-12-31T09:16:39.306Z,48.20
2018-12-31T09:17:39.216Z,47.90
2018-12-31T09:18:39.141Z,47.70
2018-12-31T09:19:39.056Z,48.00
2018-12-31T09:20:38.980Z,48.50
2018-12-31T09:21:38.877Z,48.50
2018-12-31T09:22:38.805Z,49.00
2018-12-31T09:23:38.726Z,49.10
2018-12-31T09:24:44.586Z,49.10
2018-12-31T09:25:38.589Z,49.50
2018-12-31T09:26:38.469Z,49.70
2018-12-31T09:27:38.386Z,49.20
2018-12-31T09:28:38.307Z,48.80
2018-12-31T09:29:38.210Z,49.00
2018-12-31T09:30:38.148Z,49.40
2018-12-31T09:31:38.046Z,48.80
2018-12-31T09:32:37.973Z,48.80
2018-12-31T09:33:37.877Z,48.60
2018-12-31T09:34:37.803Z,49.20
2018-12-31T09:35:37.729Z,48.50
2018-12-31T09:36:37.632Z,48.50
2018-12-31T09:37:37.549Z,47.40
2018-12-31T09:38:37.466Z,48.30
2018-12-31T09:39:37.376Z,49.00
2018-12-31T09:40:37.319Z,48.70
2018-12-31T09:41:37.208Z,48.80
2018-12-31T09:42:37.145Z,48.40
2018-12-31T09:43:37.045Z,49.30
2018-12-31T09:44:36.982Z,50.00
2018-12-31T09:45:36.893Z,47.90
2018-12-31T09:46:36.824Z,47.90
2018-12-31T09:47:36.711Z,48.80
2018-12-31T09:48:36.625Z,47.10
2018-12-31T09:49:36.548Z,46.40
2018-12-31T09:50:36.460Z,46.30
2018-12-31T09:51:36.388Z,47.30
2018-12-31T09:52:36.298Z,45.80
2018-12-31T09:53:36.222Z,46.90
2018-12-31T09:54:36.165Z,47.30
2018-12-31T09:55:36.090Z,48.30
2018-12-31T09:56:35.971Z,46.10
2018-12-31T09:57:35.875Z,47.10
2018-12-31T09:58:36.433Z,47.60
2018-12-31T09:59:35.709Z,47.90
2018-12-31T10:00:35.714Z,46.80
2018-12-31T10:01:35.560Z,46.80
2018-12-31T10:02:35.457Z,47.90
2018-12-31T10:03:35.375Z,46.90
2018-12-31T10:04:35.297Z,47.80
2018-12-31T10:05:35.230Z,47.80
2018-12-31T10:06:35.136Z,48.80
2018-12-31T10:07:35.046Z,48.80
2018-12-31T10:08:34.959Z,49.20
2018-12-31T10:09:34.878Z,47.50
2018-12-31T10:10:34.805Z,46.50
2018-12-31T10:11:34.745Z,46.10
2018-12-31T10:12:34.627Z,46.40
2018-12-31T10:13:34.551Z,44.00
2018-12-31T10:14:34.458Z,43.90
2018-12-31T10:15:34.377Z,43.90
2018-12-31T10:16:34.298Z,43.50
2018-12-31T10:17:34.220Z,42.20
2018-12-31T10:18:34.141Z,43.30
2018-12-31T10:19:34.052Z,43.80
2018-12-31T10:20:33.963Z,43.00
2018-12-31T10:21:40.767Z,42.50
2018-12-31T10:22:33.805Z,42.60
2018-12-31T10:23:33.708Z,41.60
2018-12-31T10:24:33.635Z,41.00
2018-12-31T10:25:33.545Z,40.90
2018-12-31T10:26:33.459Z,39.70
2018-12-31T10:27:33.400Z,39.40
2018-12-31T10:28:33.292Z,39.70
2018-12-31T10:29:36.159Z,39.10
2018-12-31T10:30:33.131Z,39.70
2018-12-31T10:31:33.047Z,40.60
2018-12-31T10:32:32.978Z,40.70
2018-12-31T10:33:32.918Z,41.00
2018-12-31T10:34:32.797Z,42.40
2018-12-31T10:35:32.707Z,40.80
2018-12-31T10:36:32.624Z,42.40
2018-12-31T10:37:32.567Z,42.20
2018-12-31T10:38:32.459Z,40.40
2018-12-31T10:39:32.374Z,39.70
2018-12-31T10:40:32.298Z,39.80
2018-12-31T10:41:32.224Z,41.40
2018-12-31T10:42:32.143Z,40.90
2018-12-31T10:43:32.046Z,39.90
2018-12-31T10:44:31.967Z,39.60
2018-12-31T10:45:31.884Z,39.00
2018-12-31T10:46:31.796Z,39.40
2018-12-31T10:47:31.728Z,39.20
2018-12-31T10:48:31.630Z,38.90
2018-12-31T10:49:31.564Z,39.70
2018-12-31T10:50:31.468Z,39.60
2018-12-31T10:51:31.376Z,38.70
2018-12-31T10:52:31.329Z,37.70
2018-12-31T10:53:31.209Z,38.50
2018-12-31T10:54:31.139Z,38.60
2018-12-31T10:55:31.043Z,38.40
2018-12-31T10:56:30.964Z,37.20
2018-12-31T10:57:30.890Z,36.40
2018-12-31T10:58:30.812Z,38.00
2018-12-31T10:59:30.711Z,36.50
2018-12-31T11:00:30.636Z,37.10
2018-12-31T11:01:30.552Z,36.20
2018-12-31T11:02:30.467Z,35.50
2018-12-31T11:03:30.390Z,35.60
2018-12-31T11:04:30.301Z,36.70
2018-12-31T11:05:30.211Z,35.60
2018-12-31T11:06:30.134Z,36.30
2018-12-31T11:07:30.051Z,37.00
2018-12-31T11:08:29.976Z,36.40
2018-12-31T11:09:29.889Z,36.30
2018-12-31T11:10:29.808Z,37.00
2018-12-31T11:11:29.719Z,36.10
2018-12-31T11:12:29.636Z,36.70
2018-12-31T11:13:29.570Z,34.40
2018-12-31T11:14:29.470Z,35.00
2018-12-31T11:15:29.385Z,34.90
2018-12-31T11:16:29.309Z,35.20
2018-12-31T11:17:29.223Z,33.00
2018-12-31T11:18:29.154Z,35.10
2018-12-31T11:19:29.058Z,34.10
2018-12-31T11:20:28.970Z,34.10
2018-12-31T11:21:28.888Z,33.70
2018-12-31T11:22:28.817Z,32.90
2018-12-31T11:23:28.752Z,33.00
2018-12-31T11:24:28.640Z,32.90
2018-12-31T11:25:28.563Z,31.80
2018-12-31T11:26:28.476Z,32.30
2018-12-31T11:27:28.389Z,32.20
2018-12-31T11:28:28.308Z,32.70
2018-12-31T11:29:28.243Z,30.80
2018-12-31T11:30:28.146Z,31.10
2018-12-31T11:31:30.503Z,31.50
2018-12-31T11:32:27.977Z,31.80
2018-12-31T11:33:27.889Z,32.10
2018-12-31T11:34:27.837Z,31.90
2018-12-31T11:35:27.728Z,31.40
2018-12-31T11:36:27.648Z,32.10
2018-12-31T11:37:34.456Z,31.70
2018-12-31T11:38:27.475Z,31.30
2018-12-31T11:39:27.413Z,30.30
2018-12-31T11:40:27.316Z,31.30
2018-12-31T11:41:27.231Z,32.20
2018-12-31T11:42:27.152Z,31.60
2018-12-31T11:43:27.066Z,31.30
2018-12-31T11:44:26.992Z,32.60
2018-12-31T11:45:26.906Z,32.50
2018-12-31T11:46:26.848Z,32.90
2018-12-31T11:47:26.728Z,32.10
2018-12-31T11:48:26.659Z,33.60
2018-12-31T11:49:26.606Z,34.00
2018-12-31T11:50:26.492Z,33.90
2018-12-31T11:51:26.400Z,34.40
2018-12-31T11:52:26.317Z,35.20
2018-12-31T11:53:26.243Z,35.20
2018-12-31T11:54:26.157Z,34.50
2018-12-31T11:55:26.082Z,34.50
2018-12-31T11:56:25.992Z,34.50
2018-12-31T11:57:25.902Z,35.30
2018-12-31T11:58:25.823Z,36.00
2018-12-31T11:59:25.740Z,35.10
2018-12-31T12:00:25.673Z,35.30
2018-12-31T12:01:25.566Z,36.30
2018-12-31T12:02:25.500Z,36.30
2018-12-31T12:03:25.403Z,36.40
2018-12-31T12:04:25.338Z,36.00
2018-12-31T12:05:25.253Z,36.60
2018-12-31T12:06:25.153Z,35.40
2018-12-31T12:07:25.077Z,37.20
2018-12-31T12:08:24.987Z,34.70
2018-12-31T12:09:24.912Z,34.60
2018-12-31T12:10:24.845Z,35.30
2018-12-31T12:11:24.739Z,33.50
2018-12-31T12:12:24.658Z,33.10
2018-12-31T12:13:24.584Z,33.50
2018-12-31T12:14:24.489Z,32.60
2018-12-31T12:15:24.464Z,33.40
2018-12-31T12:16:24.340Z,32.80
2018-12-31T12:17:24.240Z,33.10
2018-12-31T12:18:24.177Z,31.30
2018-12-31T12:19:24.082Z,34.00
2018-12-31T12:20:23.998Z,32.70
2018-12-31T12:21:23.929Z,32.20
2018-12-31T12:22:23.829Z,32.00
2018-12-31T12:23:23.748Z,31.90
2018-12-31T12:24:23.667Z,32.10
2018-12-31T12:25:23.585Z,32.10
2018-12-31T12:26:23.508Z,31.30
2018-12-31T12:27:23.411Z,33.30
2018-12-31T12:28:23.336Z,32.10
2018-12-31T12:29:23.246Z,33.80
2018-12-31T12:30:23.167Z,33.00
2018-12-31T12:31:23.104Z,33.60
2018-12-31T12:32:22.997Z,33.80
2018-12-31T12:33:22.913Z,33.10
2018-12-31T12:34:22.846Z,34.00
2018-12-31T12:35:22.746Z,32.80
2018-12-31T12:36:22.694Z,31.90
2018-12-31T12:37:22.587Z,33.20
2018-12-31T12:38:22.503Z,32.50
2018-12-31T12:39:22.420Z,31.80
2018-12-31T12:40:22.340Z,33.30
2018-12-31T12:41:22.283Z,31.80
2018-12-31T12:42:22.167Z,32.10
2018-12-31T12:43:22.092Z,33.10
2018-12-31T12:44:22.002Z,32.80
2018-12-31T12:45:21.918Z,32.00
2018-12-31T12:46:21.855Z,30.90
2018-12-31T12:47:21.766Z,30.70
2018-12-31T12:48:21.669Z,31.90
2018-12-31T12:49:21.596Z,31.00
2018-12-31T12:50:21.503Z,31.00
2018-12-31T12:51:21.419Z,31.50
2018-12-31T12:52:21.361Z,31.50
2018-12-31T12:53:21.259Z,32.30
2018-12-31T12:54:21.177Z,31.30
2018-12-31T12:55:21.091Z,32.60
2018-12-31T12:56:22.010Z,31.20
2018-12-31T12:57:20.935Z,31.50
2018-12-31T12:58:20.841Z,31.70
2018-12-31T12:59:20.770Z,31.90
2018-12-31T13:00:20.678Z,32.60
2018-12-31T13:01:20.595Z,34.10
2018-12-31T13:02:20.529Z,33.10
2018-12-31T13:03:20.423Z,33.90
2018-12-31T13:04:20.340Z,33.20
2018-12-31T13:05:20.273Z,34.50
2018-12-31T13:06:20.173Z,32.30
2018-12-31T13:07:20.106Z,33.10
2018-12-31T13:08:20.018Z,32.20
2018-12-31T13:09:19.931Z,33.40
2018-12-31T13:10:19.857Z,33.50
2018-12-31T13:11:19.764Z,32.10
2018-12-31T13:12:19.710Z,34.20
2018-12-31T13:13:19.593Z,33.30
2018-12-31T13:14:19.521Z,33.20
2018-12-31T13:15:19.427Z,33.90
2018-12-31T13:16:19.355Z,33.30
2018-12-31T13:17:19.277Z,34.40
2018-12-31T13:18:19.186Z,35.00
2018-12-31T13:19:19.096Z,34.00
2018-12-31T13:20:19.016Z,35.00
2018-12-31T13:21:18.929Z,35.30
2018-12-31T13:22:18.866Z,33.70
2018-12-31T13:23:18.761Z,33.50
2018-12-31T13:24:18.937Z,34.60
2018-12-31T13:25:18.595Z,35.10
2018-12-31T13:26:18.527Z,33.80
2018-12-31T13:27:18.443Z,34.20
2018-12-31T13:28:18.356Z,34.80
2018-12-31T13:29:18.263Z,35.10
2018-12-31T13:30:18.192Z,35.00
2018-12-31T13:31:18.096Z,33.50
2018-12-31T13:32:18.066Z,33.80
2018-12-31T13:33:17.956Z,34.30
2018-12-31T13:34:17.877Z,34.20
2018-12-31T13:35:17.767Z,34.10
2018-12-31T13:36:17.689Z,32.20
2018-12-31T13:37:17.603Z,33.40
2018-12-31T13:38:17.536Z,33.20
2018-12-31T13:39:17.437Z,32.70
2018-12-31T13:40:17.355Z,32.40
2018-12-31T13:41:17.264Z,32.50
2018-12-31T13:42:17.200Z,32.60
2018-12-31T13:43:17.122Z,32.40
2018-12-31T13:44:17.030Z,33.30
2018-12-31T13:45:16.941Z,31.80
2018-12-31T13:46:16.853Z,32.80
2018-12-31T13:47:16.768Z,31.60
2018-12-31T13:48:16.705Z,31.90
2018-12-31T13:49:16.609Z,32.50
2018-12-31T13:50:16.525Z,32.30
2018-12-31T13:51:16.436Z,31.70
2018-12-31T13:52:16.351Z,32.00
2018-12-31T13:53:16.292Z,31.80
2018-12-31T13:54:16.185Z,32.60
2018-12-31T13:55:16.108Z,31.20
2018-12-31T13:56:16.031Z,31.10
2018-12-31T13:57:15.984Z,31.40
2018-12-31T13:58:15.868Z,31.10
2018-12-31T13:59:15.773Z,30.10
2018-12-31T14:00:15.686Z,30.50
2018-12-31T14:01:15.600Z,30.40
2018-12-31T14:02:15.527Z,30.80
2018-12-31T14:03:17.358Z,31.30
2018-12-31T14:04:15.360Z,30.20
2018-12-31T14:05:16.545Z,30.90
2018-12-31T14:06:15.197Z,31.10
2018-12-31T14:07:15.104Z,29.80
2018-12-31T14:08:15.027Z,29.90
2018-12-31T14:09:14.961Z,29.90
2018-12-31T14:10:14.860Z,29.70
2018-12-31T14:11:14.770Z,30.90
2018-12-31T14:12:14.700Z,30.40
2018-12-31T14:13:14.617Z,30.40
2018-12-31T14:14:14.540Z,29.90
2018-12-31T14:15:14.441Z,29.20
2018-12-31T14:16:14.361Z,30.10
2018-12-31T14:17:14.270Z,29.90
2018-12-31T14:18:14.230Z,29.90
2018-12-31T14:19:14.131Z,29.20
2018-12-31T14:20:14.023Z,29.30
2018-12-31T14:21:13.990Z,30.20
2018-12-31T14:22:14.521Z,30.50
2018-12-31T14:23:13.773Z,30.20
2018-12-31T14:24:13.708Z,30.50
2018-12-31T14:25:13.606Z,31.30
2018-12-31T14:26:13.529Z,30.80
2018-12-31T14:27:13.460Z,30.60
2018-12-31T14:28:13.362Z,31.20
2018-12-31T14:29:13.296Z,31.00
2018-12-31T14:30:13.191Z,30.30
2018-12-31T14:31:13.115Z,30.10
2018-12-31T14:32:13.027Z,30.70
2018-12-31T14:33:12.946Z,29.90
2018-12-31T14:34:12.877Z,31.00
2018-12-31T14:35:12.785Z,30.50
2018-12-31T14:36:12.696Z,29.50
2018-12-31T14:37:12.626Z,30.80
2018-12-31T14:38:12.530Z,30.30
2018-12-31T14:39:14.063Z,30.00
2018-12-31T14:40:12.364Z,30.00
2018-12-31T14:41:12.281Z,29.20
2018-12-31T14:42:12.205Z,30.60
2018-12-31T14:43:12.119Z,30.50
2018-12-31T14:44:12.041Z,29.90
2018-12-31T14:45:11.955Z,30.00
2018-12-31T14:46:11.861Z,30.60
2018-12-31T14:47:18.356Z,30.40
2018-12-31T14:48:11.700Z,30.00
2018-12-31T14:49:11.650Z,33.80
2018-12-31T14:50:11.529Z,32.90
2018-12-31T14:51:11.456Z,30.50
2018-12-31T14:52:11.372Z,32.30
2018-12-31T14:53:11.283Z,31.50
2018-12-31T14:54:11.204Z,31.10
2018-12-31T14:55:11.130Z,33.10
2018-12-31T14:56:11.029Z,33.10
2018-12-31T14:57:10.958Z,33.00
2018-12-31T14:58:10.872Z,30.80
2018-12-31T14:59:10.798Z,30.50
2018-12-31T15:00:10.725Z,30.00
2018-12-31T15:01:10.621Z,33.80
2018-12-31T15:02:10.532Z,33.40
2018-12-31T15:03:10.450Z,33.10
2018-12-31T15:04:10.376Z,32.70
2018-12-31T15:05:10.300Z,30.50
2018-12-31T15:06:10.204Z,33.10
2018-12-31T15:07:10.123Z,32.60
2018-12-31T15:08:10.041Z,35.40
2018-12-31T15:09:09.967Z,35.30
2018-12-31T15:10:09.887Z,33.20
2018-12-31T15:11:09.788Z,33.80
2018-12-31T15:12:09.711Z,33.60
2018-12-31T15:13:09.629Z,33.30
2018-12-31T15:14:09.553Z,32.80
2018-12-31T15:15:09.480Z,32.90
2018-12-31T15:16:09.368Z,32.60
2018-12-31T15:17:09.299Z,32.50
2018-12-31T15:18:09.201Z,32.70
2018-12-31T15:19:09.124Z,32.70
2018-12-31T15:20:09.054Z,33.40
2018-12-31T15:21:08.969Z,32.80
2018-12-31T15:22:08.873Z,32.10
2018-12-31T15:23:08.801Z,32.70
2018-12-31T15:24:08.716Z,33.60
2018-12-31T15:25:08.625Z,33.10
2018-12-31T15:26:08.552Z,33.70
2018-12-31T15:27:08.475Z,34.60
2018-12-31T15:28:08.381Z,33.00
2018-12-31T15:29:08.292Z,32.00
2018-12-31T15:30:08.201Z,32.50
2018-12-31T15:31:08.148Z,31.30
2018-12-31T15:32:08.036Z,31.80
2018-12-31T15:33:07.958Z,32.10
2018-12-31T15:34:07.881Z,30.90
2018-12-31T15:35:07.794Z,31.90
2018-12-31T15:36:07.717Z,32.60
2018-12-31T15:37:07.629Z,31.40
2018-12-31T15:38:07.538Z,31.80
2018-12-31T15:39:07.479Z,32.00
2018-12-31T15:40:07.403Z,31.30
2018-12-31T15:41:07.307Z,30.60
2018-12-31T15:42:07.207Z,30.20
2018-12-31T15:43:07.123Z,31.30
2018-12-31T15:44:07.051Z,31.40
2018-12-31T15:45:06.960Z,30.40
2018-12-31T15:46:06.882Z,31.90
2018-12-31T15:47:06.792Z,31.00
2018-12-31T15:48:06.710Z,31.80
2018-12-31T15:49:06.630Z,31.00
2018-12-31T15:50:06.537Z,31.80
2018-12-31T15:51:06.492Z,32.10
2018-12-31T15:52:06.375Z,30.80
2018-12-31T15:53:06.287Z,32.40
2018-12-31T15:54:06.208Z,33.10
2018-12-31T15:55:06.118Z,33.30
2018-12-31T15:56:06.040Z,33.90
2018-12-31T15:57:05.984Z,32.80
2018-12-31T15:58:05.869Z,36.50
2018-12-31T15:59:05.787Z,34.60
2018-12-31T16:00:05.727Z,34.10
2018-12-31T16:01:05.622Z,33.40
2018-12-31T16:02:05.547Z,32.70
2018-12-31T16:03:05.470Z,33.20
2018-12-31T16:04:05.380Z,34.30
2018-12-31T16:05:05.293Z,33.30
2018-12-31T16:06:05.205Z,33.80
2018-12-31T16:07:05.143Z,36.40
2018-12-31T16:08:05.035Z,36.20
2018-12-31T16:09:04.954Z,36.00
2018-12-31T16:10:04.871Z,35.80
2018-12-31T16:11:04.788Z,36.50
2018-12-31T16:12:04.715Z,36.20
2018-12-31T16:13:04.621Z,37.90
2018-12-31T16:14:04.538Z,38.70
2018-12-31T16:15:04.449Z,37.30
2018-12-31T16:16:04.376Z,37.90
2018-12-31T16:17:04.297Z,39.20
2018-12-31T16:18:05.776Z,40.80
2018-12-31T16:19:04.122Z,39.80
2018-12-31T16:20:04.032Z,38.80
2018-12-31T16:21:05.795Z,40.20
2018-12-31T16:22:03.898Z,39.90
2018-12-31T16:23:03.788Z,39.40
2018-12-31T16:24:03.700Z,39.20
2018-12-31T16:25:03.620Z,41.70
2018-12-31T16:26:03.536Z,39.60
2018-12-31T16:27:03.477Z,35.00
2018-12-31T16:28:03.375Z,34.40
2018-12-31T16:29:03.354Z,35.80
2018-12-31T16:30:03.198Z,36.40
2018-12-31T16:31:03.119Z,35.90
2018-12-31T16:32:03.036Z,34.90
2018-12-31T16:33:02.970Z,36.90
2018-12-31T16:34:02.874Z,35.90
2018-12-31T16:35:02.787Z,34.90
2018-12-31T16:36:02.706Z,36.20
2018-12-31T16:37:02.619Z,35.70
2018-12-31T16:38:02.567Z,37.70
2018-12-31T16:39:02.448Z,38.00
2018-12-31T16:40:02.377Z,36.90
2018-12-31T16:41:02.279Z,36.30
2018-12-31T16:42:02.202Z,37.00
2018-12-31T16:43:02.143Z,37.30
2018-12-31T16:44:02.049Z,38.40
2018-12-31T16:45:01.953Z,36.30
2018-12-31T16:46:01.859Z,36.80
2018-12-31T16:47:01.792Z,35.40
2018-12-31T16:48:01.769Z,35.40
2018-12-31T16:49:01.622Z,35.60
2018-12-31T16:50:01.530Z,35.90
2018-12-31T16:51:01.455Z,37.20
2018-12-31T16:52:02.785Z,36.50
2018-12-31T16:53:01.289Z,36.50
2018-12-31T16:54:01.208Z,37.00
2018-12-31T16:55:01.117Z,37.20
2018-12-31T16:56:01.027Z,38.40
2018-12-31T16:57:00.951Z,39.10
2018-12-31T16:58:00.880Z,38.00
2018-12-31T16:59:00.776Z,41.30
2018-12-31T17:00:00.701Z,40.50
2018-12-31T17:01:00.611Z,40.50
2018-12-31T17:02:00.533Z,40.10
2018-12-31T17:03:00.462Z,39.50
2018-12-31T17:04:00.366Z,40.80
2018-12-31T17:05:00.289Z,38.50
2018-12-31T17:06:00.206Z,37.50
2018-12-31T17:07:00.111Z,39.50
2018-12-31T17:08:00.049Z,38.20
2018-12-31T17:08:59.942Z,38.60
2018-12-31T17:09:59.865Z,37.80
2018-12-31T17:10:59.788Z,37.60
2018-12-31T17:11:59.706Z,37.40
2018-12-31T17:12:59.755Z,37.70
2018-12-31T17:13:59.529Z,38.10
2018-12-31T17:14:59.449Z,40.80
2018-12-31T17:15:59.368Z,40.00
2018-12-31T17:16:59.280Z,42.20
2018-12-31T17:17:59.197Z,41.50
2018-12-31T17:18:59.135Z,41.00
2018-12-31T17:19:59.031Z,43.70
2018-12-31T17:20:58.939Z,44.00
2018-12-31T17:21:58.865Z,43.60
2018-12-31T17:22:58.773Z,42.70
2018-12-31T17:23:58.703Z,41.20
2018-12-31T17:24:58.611Z,39.80
2018-12-31T17:25:58.521Z,41.60
2018-12-31T17:26:58.439Z,41.40
2018-12-31T17:27:58.360Z,39.80
2018-12-31T17:28:58.286Z,40.50
2018-12-31T17:29:58.200Z,41.50
2018-12-31T17:30:58.113Z,40.70
2018-12-31T17:31:58.027Z,41.10
2018-12-31T17:32:57.943Z,41.30
2018-12-31T17:33:57.872Z,43.40
2018-12-31T17:34:57.776Z,42.00
2018-12-31T17:35:57.690Z,43.50
2018-12-31T17:36:57.602Z,42.80
2018-12-31T17:37:57.527Z,43.10
2018-12-31T17:38:57.452Z,41.80
2018-12-31T17:39:57.360Z,41.70
2018-12-31T17:40:57.278Z,42.90
2018-12-31T17:41:57.198Z,42.10
2018-12-31T17:42:57.102Z,41.80
2018-12-31T17:43:57.051Z,49.00
2018-12-31T17:44:56.939Z,47.70
2018-12-31T17:45:56.857Z,44.70
2018-12-31T17:46:56.844Z,41.20
2018-12-31T17:47:56.692Z,44.10
2018-12-31T17:48:56.603Z,41.60
2018-12-31T17:49:56.540Z,42.10
2018-12-31T17:50:56.444Z,43.30
2018-12-31T17:51:56.368Z,43.20
2018-12-31T17:52:56.269Z,42.70
2018-12-31T17:53:56.191Z,42.30
2018-12-31T17:54:56.120Z,43.90
2018-12-31T17:55:56.031Z,43.00
2018-12-31T17:56:55.933Z,44.10
2018-12-31T17:57:55.858Z,47.90
2018-12-31T17:58:55.766Z,52.50
2018-12-31T17:59:55.707Z,58.60
2018-12-31T18:00:55.614Z,54.80
2018-12-31T18:01:55.522Z,52.40
2018-12-31T18:02:55.434Z,51.10
2018-12-31T18:03:55.367Z,47.60
2018-12-31T18:04:55.284Z,44.60
2018-12-31T18:05:55.189Z,44.40
2018-12-31T18:06:55.099Z,46.20
2018-12-31T18:07:55.023Z,45.10
2018-12-31T18:08:54.934Z,44.90
2018-12-31T18:09:54.866Z,45.10
2018-12-31T18:10:54.777Z,45.40
2018-12-31T18:11:54.683Z,44.70
2018-12-31T18:12:54.596Z,45.80
2018-12-31T18:13:54.519Z,47.90
2018-12-31T18:14:54.443Z,48.90
2018-12-31T18:15:54.352Z,46.40
2018-12-31T18:16:54.263Z,45.70
2018-12-31T18:17:54.185Z,45.90
2018-12-31T18:18:54.096Z,45.40
2018-12-31T18:19:54.047Z,44.40
2018-12-31T18:20:53.936Z,43.60
2018-12-31T18:21:53.850Z,45.70
2018-12-31T18:22:53.760Z,43.60
2018-12-31T18:23:53.684Z,46.10
2018-12-31T18:24:53.598Z,44.60
2018-12-31T18:25:53.524Z,44.90
2018-12-31T18:26:53.439Z,43.70
2018-12-31T18:27:53.342Z,44.20
2018-12-31T18:28:53.260Z,44.70
2018-12-31T18:29:53.181Z,43.60
2018-12-31T18:30:53.327Z,44.20
2018-12-31T18:31:53.015Z,44.00
2018-12-31T18:32:52.934Z,47.90
2018-12-31T18:33:52.847Z,45.20
2018-12-31T18:34:52.758Z,45.50
2018-12-31T18:35:52.700Z,46.20
2018-12-31T18:36:52.620Z,49.40
2018-12-31T18:37:52.513Z,48.70
2018-12-31T18:38:52.423Z,48.30
2018-12-31T18:39:57.976Z,46.10
2018-12-31T18:40:52.278Z,45.60
2018-12-31T18:41:52.179Z,45.20
2018-12-31T18:42:52.095Z,44.30
2018-12-31T18:43:52.006Z,44.50
2018-12-31T18:44:51.933Z,45.00
2018-12-31T18:45:51.857Z,46.60
2018-12-31T18:46:51.761Z,46.30
2018-12-31T18:47:51.672Z,46.30
2018-12-31T18:48:51.593Z,45.20
2018-12-31T18:49:51.504Z,45.50
2018-12-31T18:50:51.432Z,44.90